»·PEaware :: SWA2452 KLAS-KABQ

SWA2452 :: KLAS-KABQ

FLIGHT INFORMATION

Flight Status: Arrived
Operator:
Southwest Airlines
More flights by this operator :: More flights under this callsign
Pilot: Anonymous 13704 (13704)
Aircraft: BOEING 737-800
(B738)
More flights by this aircraft type
Origin: KLAS McCarran Intl
United States
Destination: KABQ Albuquerque Intl Sunport
United States
More flights between these airports :: More routes between these airports
Route: COWBY8 GUP LOWBO3
File this flight plan on PilotEdge
Remarks: RMK / SIMBRIEF
Altitude:
(Current/Filed)
35,000ft
Speed:
(Current/Filed)
436kts
Departed: 14-Mar-19 04:37 PM
Arrived: 14-Mar-19 05:42 PM
Distance/Time
Traveled:
421nm/1:05
Distance/Time
To Go:
Arrived

Flight Plot

Page will automatically refresh every two minutes.

Flight plan parsing failed; only flown route is shown


Map Options




Map Legend


Flown Route
Filed Route
Departure Airport
Arrival Airport
Navaid (VOR, NDB)
Fix

Horizontal Profiles

Position Reports

Time Latitude Longitude Heading Altitude Ground
Speed
14-Mar-19 16:04 36.080312 -115.147274 61 2107ft 0kts
14-Mar-19 16:05 36.080312 -115.147274 61 2107ft 0kts
14-Mar-19 16:06 36.080312 -115.147274 61 2107ft 0kts
14-Mar-19 16:07 36.080312 -115.147274 61 2107ft 0kts
14-Mar-19 16:08 36.080312 -115.147274 61 2107ft 0kts
14-Mar-19 16:09 36.080312 -115.147274 61 2107ft 0kts
14-Mar-19 16:10 36.080312 -115.147274 61 2107ft 0kts
14-Mar-19 16:11 36.080312 -115.147274 61 2107ft 0kts
14-Mar-19 16:12 36.080312 -115.147274 61 2107ft 0kts
14-Mar-19 16:13 36.080312 -115.147274 61 2107ft 0kts
14-Mar-19 16:14 36.080312 -115.147274 61 2107ft 0kts
14-Mar-19 16:15 36.080312 -115.147274 61 2107ft 0kts
14-Mar-19 16:16 36.080312 -115.147274 61 2107ft 0kts
14-Mar-19 16:17 36.080312 -115.147274 61 2107ft 0kts
14-Mar-19 16:18 36.080312 -115.147274 61 2107ft 0kts
14-Mar-19 16:19 36.080312 -115.147274 61 2107ft 0kts
14-Mar-19 16:20 36.080312 -115.147274 61 2107ft 0kts
14-Mar-19 16:21 36.080259 -115.147393 65 2107ft 2kts
14-Mar-19 16:22 36.080372 -115.148084 136 2107ft 2kts
14-Mar-19 16:23 36.080564 -115.148233 157 2107ft 0kts
14-Mar-19 16:24 36.080563 -115.148233 157 2107ft 0kts
14-Mar-19 16:25 36.080563 -115.148233 157 2107ft 0kts
14-Mar-19 16:26 36.080420 -115.148159 157 2107ft 2kts
14-Mar-19 16:27 36.079516 -115.147674 154 2107ft 0kts
14-Mar-19 16:28 36.079516 -115.147674 154 2107ft 0kts
14-Mar-19 16:29 36.079516 -115.147674 154 2107ft 0kts
14-Mar-19 16:30 36.078773 -115.147276 160 2107ft 9kts
14-Mar-19 16:31 36.078037 -115.150391 276 2107ft 19kts
14-Mar-19 16:32 36.078041 -115.156988 271 2107ft 19kts
14-Mar-19 16:33 36.078024 -115.163391 269 2107ft 5kts
14-Mar-19 16:34 36.078024 -115.163399 269 2107ft 0kts
14-Mar-19 16:35 36.078019 -115.163952 269 2107ft 8kts
14-Mar-19 16:36 36.089505 -115.158772 25 2107ft 148kts
14-Mar-19 16:37 36.124105 -115.120054 84 3996ft 215kts
14-Mar-19 16:38 36.140207 -115.039051 81 6521ft 270kts
14-Mar-19 16:39 36.147958 -114.945270 80 10036ft 282kts
14-Mar-19 16:40 36.157603 -114.840479 78 12653ft 319kts
14-Mar-19 16:41 36.176327 -114.729472 74 15371ft 342kts
14-Mar-19 16:42 36.139533 -114.614963 137 17715ft 400kts
14-Mar-19 16:43 36.049940 -114.528084 128 19904ft 418kts
14-Mar-19 16:44 35.997065 -114.401607 97 22211ft 419kts
14-Mar-19 16:45 35.976156 -114.257666 95 23294ft 427kts
14-Mar-19 16:46 35.954893 -114.113351 95 23365ft 433kts
14-Mar-19 16:47 35.933207 -113.967250 95 25505ft 440kts
14-Mar-19 16:48 35.910174 -113.816762 95 27308ft 453kts
14-Mar-19 16:49 35.886623 -113.667237 95 28893ft 464kts
14-Mar-19 16:50 35.861547 -113.509152 96 30362ft 475kts
14-Mar-19 16:51 35.835890 -113.348837 97 31807ft 484kts
14-Mar-19 16:52 35.809616 -113.185861 98 33442ft 483kts
14-Mar-19 16:53 35.783308 -113.024363 99 34900ft 482kts
14-Mar-19 16:54 35.756314 -112.860013 100 35253ft 499kts
14-Mar-19 16:56 35.728594 -112.692845 100 35248ft 499kts
14-Mar-19 16:57 35.700560 -112.525259 100 35251ft 500kts
14-Mar-19 16:58 35.672345 -112.358094 100 35253ft 501kts
14-Mar-19 16:59 35.644594 -112.194828 100 35243ft 501kts
14-Mar-19 17:00 35.615851 -112.027515 101 35245ft 501kts
14-Mar-19 17:01 35.591673 -111.859707 91 35250ft 500kts
14-Mar-19 17:02 35.587392 -111.689181 89 35250ft 500kts
14-Mar-19 17:03 35.582474 -111.518780 90 35252ft 501kts
14-Mar-19 17:04 35.577413 -111.350387 90 35254ft 500kts
14-Mar-19 17:05 35.572100 -111.180017 91 35244ft 501kts
14-Mar-19 17:06 35.566491 -111.009352 91 35246ft 501kts
14-Mar-19 17:07 35.560627 -110.838191 91 35248ft 501kts
14-Mar-19 17:08 35.554534 -110.667385 91 35250ft 501kts
14-Mar-19 17:09 35.548201 -110.496592 91 35252ft 501kts
14-Mar-19 17:10 35.541711 -110.327814 92 35245ft 501kts
14-Mar-19 17:11 35.534940 -110.157027 92 35244ft 501kts
14-Mar-19 17:12 35.527887 -109.986246 92 35224ft 502kts
14-Mar-19 17:13 35.520570 -109.814983 92 35212ft 502kts
14-Mar-19 17:14 35.513034 -109.644202 92 35214ft 503kts
14-Mar-19 17:14 35.506526 -109.501004 93 35217ft 503kts
14-Mar-19 17:16 35.497283 -109.303325 93 35208ft 504kts
14-Mar-19 17:17 35.489028 -109.132246 94 35209ft 504kts
14-Mar-19 17:17 35.482066 -108.992096 94 35212ft 505kts
14-Mar-19 17:18 35.476665 -108.819600 88 35216ft 506kts
14-Mar-19 17:20 35.481732 -108.621009 88 35218ft 496kts
14-Mar-19 17:20 35.484722 -108.479676 88 35218ft 497kts
14-Mar-19 17:21 35.484178 -108.312578 94 32686ft 507kts
14-Mar-19 17:22 35.473291 -108.143481 96 29492ft 477kts
14-Mar-19 17:23 35.462992 -107.987597 96 27088ft 450kts
14-Mar-19 17:24 35.452710 -107.834981 95 24651ft 444kts
14-Mar-19 17:25 35.443578 -107.690107 94 24205ft 418kts
14-Mar-19 17:26 35.434608 -107.547419 94 21886ft 415kts
14-Mar-19 17:27 35.425820 -107.412652 97 19717ft 375kts
14-Mar-19 17:28 35.390381 -107.297905 124 17584ft 339kts
14-Mar-19 17:29 35.340891 -107.203190 123 16222ft 330kts
14-Mar-19 17:30 35.294195 -107.111726 121 14660ft 319kts
14-Mar-19 17:31 35.265193 -107.014529 108 13179ft 295kts
14-Mar-19 17:32 35.239320 -106.918986 107 11775ft 295kts
14-Mar-19 17:33 35.213559 -106.824206 107 10549ft 287kts
14-Mar-19 17:34 35.189744 -106.736912 108 9546ft 249kts
14-Mar-19 17:35 35.164991 -106.667295 122 8754ft 204kts
14-Mar-19 17:36 35.136958 -106.610338 121 8109ft 180kts
14-Mar-19 17:37 35.111021 -106.556846 121 7509ft 184kts
14-Mar-19 17:38 35.080031 -106.509809 160 6875ft 164kts
14-Mar-19 17:39 35.045023 -106.529010 257 6128ft 151kts
14-Mar-19 17:40 35.044074 -106.579040 270 5380ft 149kts
14-Mar-19 17:41 35.045142 -106.598736 299 5333ft 1kts
14-Mar-19 17:42 35.045738 -106.600770 273 5329ft 14kts
14-Mar-19 17:43 35.045760 -106.606482 270 5322ft 20kts
14-Mar-19 17:44 35.045814 -106.613771 269 5323ft 22kts
14-Mar-19 17:45 35.046508 -106.615475 10 5323ft 4kts
14-Mar-19 17:46 35.046868 -106.615384 11 5322ft 0kts

Navigation Log

Ident Type
Flight plan parsing failed, navigation log unavailable